sensor_id;sensor_type;location;lat;lon;timestamp;P1;durP1;ratioP1;P2;durP2;ratioP2
20090;SDS011;10205;49.678;6.560;2022-07-15T00:01:34;2.25;;;1.50;;
20090;SDS011;10205;49.678;6.560;2022-07-15T00:04:02;1.52;;;1.20;;
20090;SDS011;10205;49.678;6.560;2022-07-15T00:10:00;2.25;;;1.50;;
20090;SDS011;10205;49.678;6.560;2022-07-15T00:12:46;2.67;;;1.60;;
20090;SDS011;10205;49.678;6.560;2022-07-15T00:15:16;1.73;;;1.60;;
20090;SDS011;10205;49.678;6.560;2022-07-15T00:21:28;2.03;;;1.42;;
20090;SDS011;10205;49.678;6.560;2022-07-15T00:23:56;1.48;;;1.38;;
20090;SDS011;10205;49.678;6.560;2022-07-15T00:26:24;2.33;;;1.33;;
20090;SDS011;10205;49.678;6.560;2022-07-15T00:28:51;2.78;;;1.38;;
20090;SDS011;10205;49.678;6.560;2022-07-15T01:08:25;1.25;;;0.95;;
20090;SDS011;10205;49.678;6.560;2022-07-15T01:10:52;2.97;;;1.40;;
20090;SDS011;10205;49.678;6.560;2022-07-15T01:13:20;3.08;;;1.50;;
20090;SDS011;10205;49.678;6.560;2022-07-15T01:15:48;1.92;;;1.40;;
20090;SDS011;10205;49.678;6.560;2022-07-15T01:18:16;1.80;;;1.35;;
20090;SDS011;10205;49.678;6.560;2022-07-15T01:20:45;2.33;;;1.33;;
20090;SDS011;10205;49.678;6.560;2022-07-15T01:23:13;1.50;;;1.40;;
20090;SDS011;10205;49.678;6.560;2022-07-15T02:03:59;2.35;;;1.05;;
20090;SDS011;10205;49.678;6.560;2022-07-15T02:06:26;2.40;;;1.23;;
20090;SDS011;10205;49.678;6.560;2022-07-15T02:08:54;2.45;;;1.27;;
20090;SDS011;10205;49.678;6.560;2022-07-15T02:11:21;1.92;;;1.10;;
20090;SDS011;10205;49.678;6.560;2022-07-15T02:13:48;1.30;;;1.20;;
20090;SDS011;10205;49.678;6.560;2022-07-15T02:16:16;2.20;;;1.20;;
20090;SDS011;10205;49.678;6.560;2022-07-15T02:18:43;1.92;;;1.20;;
20090;SDS011;10205;49.678;6.560;2022-07-15T02:21:12;1.98;;;1.23;;
20090;SDS011;10205;49.678;6.560;2022-07-15T02:23:39;1.00;;;0.90;;
20090;SDS011;10205;49.678;6.560;2022-07-15T02:33:28;1.10;;;1.00;;
20090;SDS011;10205;49.678;6.560;2022-07-15T02:35:55;2.55;;;1.02;;
20090;SDS011;10205;49.678;6.560;2022-07-15T02:38:24;1.90;;;1.00;;
20090;SDS011;10205;49.678;6.560;2022-07-15T02:40:51;1.85;;;1.00;;
20090;SDS011;10205;49.678;6.560;2022-07-15T02:43:18;1.45;;;1.00;;
20090;SDS011;10205;49.678;6.560;2022-07-15T02:45:46;1.88;;;1.50;;
20090;SDS011;10205;49.678;6.560;2022-07-15T02:48:14;2.13;;;1.30;;
20090;SDS011;10205;49.678;6.560;2022-07-15T02:50:41;0.90;;;0.90;;
20090;SDS011;10205;49.678;6.560;2022-07-15T02:53:09;2.42;;;1.10;;
20090;SDS011;10205;49.678;6.560;2022-07-15T02:55:38;1.70;;;1.10;;
20090;SDS011;10205;49.678;6.560;2022-07-15T02:58:05;1.88;;;1.20;;
20090;SDS011;10205;49.678;6.560;2022-07-15T03:00:33;1.20;;;1.10;;
20090;SDS011;10205;49.678;6.560;2022-07-15T03:03:00;1.15;;;1.00;;
20090;SDS011;10205;49.678;6.560;2022-07-15T03:05:27;1.73;;;0.98;;
20090;SDS011;10205;49.678;6.560;2022-07-15T03:07:54;1.80;;;1.10;;
20090;SDS011;10205;49.678;6.560;2022-07-15T03:10:22;1.70;;;0.98;;
20090;SDS011;10205;49.678;6.560;2022-07-15T03:12:50;1.67;;;1.10;;
20090;SDS011;10205;49.678;6.560;2022-07-15T03:15:17;3.45;;;1.05;;
20090;SDS011;10205;49.678;6.560;2022-07-15T03:17:44;2.00;;;1.20;;
20090;SDS011;10205;49.678;6.560;2022-07-15T03:20:11;1.70;;;1.08;;
20090;SDS011;10205;49.678;6.560;2022-07-15T03:22:39;1.25;;;1.02;;
20090;SDS011;10205;49.678;6.560;2022-07-15T03:25:06;1.10;;;1.00;;
20090;SDS011;10205;49.678;6.560;2022-07-15T03:27:34;1.25;;;0.90;;
20090;SDS011;10205;49.678;6.560;2022-07-15T03:30:03;1.67;;;1.08;;
20090;SDS011;10205;49.678;6.560;2022-07-15T03:32:31;1.15;;;1.00;;
20090;SDS011;10205;49.678;6.560;2022-07-15T03:34:59;2.00;;;1.33;;
20090;SDS011;10205;49.678;6.560;2022-07-15T03:37:26;1.27;;;1.05;;
20090;SDS011;10205;49.678;6.560;2022-07-15T03:39:53;1.52;;;1.13;;
20090;SDS011;10205;49.678;6.560;2022-07-15T03:42:20;2.15;;;1.25;;
20090;SDS011;10205;49.678;6.560;2022-07-15T03:44:47;2.33;;;1.17;;
20090;SDS011;10205;49.678;6.560;2022-07-15T03:47:28;2.55;;;1.25;;
20090;SDS011;10205;49.678;6.560;2022-07-15T03:49:55;1.15;;;0.93;;
20090;SDS011;10205;49.678;6.560;2022-07-15T03:52:23;1.48;;;1.00;;
20090;SDS011;10205;49.678;6.560;2022-07-15T03:54:50;2.42;;;1.17;;
20090;SDS011;10205;49.678;6.560;2022-07-15T03:57:17;1.58;;;1.00;;
20090;SDS011;10205;49.678;6.560;2022-07-15T03:59:45;1.88;;;1.10;;
20090;SDS011;10205;49.678;6.560;2022-07-15T04:02:12;1.50;;;1.00;;
20090;SDS011;10205;49.678;6.560;2022-07-15T04:04:40;1.10;;;0.98;;
20090;SDS011;10205;49.678;6.560;2022-07-15T04:07:07;1.27;;;1.00;;
20090;SDS011;10205;49.678;6.560;2022-07-15T04:09:34;2.95;;;1.10;;
20090;SDS011;10205;49.678;6.560;2022-07-15T04:12:02;2.53;;;1.05;;
20090;SDS011;10205;49.678;6.560;2022-07-15T04:14:30;1.42;;;1.00;;
20090;SDS011;10205;49.678;6.560;2022-07-15T04:16:57;1.58;;;1.00;;
20090;SDS011;10205;49.678;6.560;2022-07-15T04:19:24;1.27;;;1.05;;
20090;SDS011;10205;49.678;6.560;2022-07-15T04:21:52;2.33;;;1.02;;
20090;SDS011;10205;49.678;6.560;2022-07-15T04:24:19;1.40;;;1.00;;
20090;SDS011;10205;49.678;6.560;2022-07-15T04:26:47;1.58;;;1.10;;
20090;SDS011;10205;49.678;6.560;2022-07-15T04:31:49;1.55;;;1.00;;
20090;SDS011;10205;49.678;6.560;2022-07-15T04:36:53;1.20;;;1.00;;
20090;SDS011;10205;49.678;6.560;2022-07-15T04:41:55;2.67;;;1.33;;
20090;SDS011;10205;49.678;6.560;2022-07-15T04:44:22;1.60;;;1.00;;
20090;SDS011;10205;49.678;6.560;2022-07-15T04:46:50;1.70;;;1.10;;
20090;SDS011;10205;49.678;6.560;2022-07-15T04:49:17;2.33;;;1.15;;
20090;SDS011;10205;49.678;6.560;2022-07-15T04:52:02;2.08;;;1.27;;
20090;SDS011;10205;49.678;6.560;2022-07-15T04:54:30;1.40;;;0.90;;
20090;SDS011;10205;49.678;6.560;2022-07-15T04:56:57;1.98;;;1.10;;
20090;SDS011;10205;49.678;6.560;2022-07-15T04:59:24;1.77;;;1.10;;
20090;SDS011;10205;49.678;6.560;2022-07-15T05:01:51;1.33;;;1.23;;
20090;SDS011;10205;49.678;6.560;2022-07-15T05:04:19;1.55;;;1.17;;
20090;SDS011;10205;49.678;6.560;2022-07-15T05:06:46;2.53;;;1.20;;
20090;SDS011;10205;49.678;6.560;2022-07-15T05:09:15;2.40;;;1.10;;
20090;SDS011;10205;49.678;6.560;2022-07-15T05:11:42;1.55;;;1.10;;
20090;SDS011;10205;49.678;6.560;2022-07-15T05:14:09;2.72;;;1.20;;
20090;SDS011;10205;49.678;6.560;2022-07-15T05:16:37;1.83;;;1.15;;
20090;SDS011;10205;49.678;6.560;2022-07-15T05:19:04;1.42;;;0.95;;
20090;SDS011;10205;49.678;6.560;2022-07-15T05:21:31;1.65;;;1.00;;
20090;SDS011;10205;49.678;6.560;2022-07-15T05:23:58;2.67;;;1.25;;
20090;SDS011;10205;49.678;6.560;2022-07-15T05:26:27;5.20;;;1.30;;
20090;SDS011;10205;49.678;6.560;2022-07-15T05:28:54;2.13;;;1.30;;
20090;SDS011;10205;49.678;6.560;2022-07-15T05:31:21;1.98;;;1.50;;
20090;SDS011;10205;49.678;6.560;2022-07-15T05:33:49;1.40;;;1.17;;
20090;SDS011;10205;49.678;6.560;2022-07-15T05:36:17;2.53;;;1.40;;
20090;SDS011;10205;49.678;6.560;2022-07-15T05:38:45;1.77;;;1.10;;
20090;SDS011;10205;49.678;6.560;2022-07-15T05:41:12;1.92;;;1.13;;
20090;SDS011;10205;49.678;6.560;2022-07-15T05:43:41;3.63;;;1.30;;
20090;SDS011;10205;49.678;6.560;2022-07-15T05:46:08;4.50;;;1.52;;
20090;SDS011;10205;49.678;6.560;2022-07-15T05:48:35;2.78;;;1.50;;
20090;SDS011;10205;49.678;6.560;2022-07-15T05:51:04;3.92;;;1.45;;
20090;SDS011;10205;49.678;6.560;2022-07-15T05:53:31;2.45;;;1.55;;
20090;SDS011;10205;49.678;6.560;2022-07-15T05:55:58;2.63;;;1.70;;
20090;SDS011;10205;49.678;6.560;2022-07-15T05:58:26;2.13;;;1.60;;
20090;SDS011;10205;49.678;6.560;2022-07-15T06:00:54;3.92;;;1.35;;
20090;SDS011;10205;49.678;6.560;2022-07-15T06:03:21;3.10;;;1.30;;
20090;SDS011;10205;49.678;6.560;2022-07-15T06:05:49;3.88;;;1.85;;
20090;SDS011;10205;49.678;6.560;2022-07-15T06:08:16;3.42;;;2.45;;
20090;SDS011;10205;49.678;6.560;2022-07-15T06:10:43;4.93;;;2.00;;
20090;SDS011;10205;49.678;6.560;2022-07-15T06:13:11;3.03;;;2.50;;
20090;SDS011;10205;49.678;6.560;2022-07-15T06:15:39;4.57;;;2.20;;
20090;SDS011;10205;49.678;6.560;2022-07-15T06:18:08;5.38;;;2.50;;
20090;SDS011;10205;49.678;6.560;2022-07-15T06:20:35;4.13;;;2.50;;
20090;SDS011;10205;49.678;6.560;2022-07-15T06:23:02;3.75;;;2.78;;
20090;SDS011;10205;49.678;6.560;2022-07-15T06:25:29;6.68;;;2.60;;
20090;SDS011;10205;49.678;6.560;2022-07-15T06:27:57;4.90;;;3.00;;
20090;SDS011;10205;49.678;6.560;2022-07-15T06:30:24;3.78;;;2.70;;
20090;SDS011;10205;49.678;6.560;2022-07-15T06:32:52;8.90;;;4.20;;
20090;SDS011;10205;49.678;6.560;2022-07-15T06:35:20;5.10;;;2.97;;
20090;SDS011;10205;49.678;6.560;2022-07-15T06:37:48;5.20;;;2.50;;
20090;SDS011;10205;49.678;6.560;2022-07-15T06:40:16;3.67;;;2.72;;
20090;SDS011;10205;49.678;6.560;2022-07-15T06:42:43;6.75;;;3.75;;
20090;SDS011;10205;49.678;6.560;2022-07-15T06:45:12;4.53;;;2.75;;
20090;SDS011;10205;49.678;6.560;2022-07-15T06:47:40;4.65;;;3.40;;
20090;SDS011;10205;49.678;6.560;2022-07-15T06:50:07;6.00;;;3.22;;
20090;SDS011;10205;49.678;6.560;2022-07-15T06:52:37;5.70;;;3.42;;
20090;SDS011;10205;49.678;6.560;2022-07-15T06:55:05;4.93;;;3.65;;
20090;SDS011;10205;49.678;6.560;2022-07-15T06:57:33;6.45;;;3.88;;
20090;SDS011;10205;49.678;6.560;2022-07-15T07:00:00;6.90;;;4.85;;
20090;SDS011;10205;49.678;6.560;2022-07-15T07:02:28;7.47;;;4.15;;
20090;SDS011;10205;49.678;6.560;2022-07-15T07:04:57;10.10;;;5.00;;
20090;SDS011;10205;49.678;6.560;2022-07-15T07:07:25;8.10;;;4.43;;
20090;SDS011;10205;49.678;6.560;2022-07-15T07:09:53;5.80;;;5.03;;
20090;SDS011;10205;49.678;6.560;2022-07-15T07:12:20;7.75;;;4.65;;
20090;SDS011;10205;49.678;6.560;2022-07-15T07:14:48;5.72;;;3.88;;
20090;SDS011;10205;49.678;6.560;2022-07-15T07:17:15;5.03;;;4.32;;
20090;SDS011;10205;49.678;6.560;2022-07-15T07:19:42;8.32;;;4.68;;
20090;SDS011;10205;49.678;6.560;2022-07-15T07:22:09;3.97;;;3.50;;
20090;SDS011;10205;49.678;6.560;2022-07-15T07:24:36;4.18;;;3.78;;
20090;SDS011;10205;49.678;6.560;2022-07-15T07:27:05;4.43;;;3.97;;
20090;SDS011;10205;49.678;6.560;2022-07-15T07:29:32;7.78;;;5.30;;
20090;SDS011;10205;49.678;6.560;2022-07-15T07:31:59;6.95;;;4.78;;
20090;SDS011;10205;49.678;6.560;2022-07-15T07:34:27;5.22;;;4.32;;
20090;SDS011;10205;49.678;6.560;2022-07-15T07:36:55;5.70;;;4.90;;
20090;SDS011;10205;49.678;6.560;2022-07-15T07:39:22;8.55;;;4.90;;
20090;SDS011;10205;49.678;6.560;2022-07-15T07:41:49;5.00;;;4.15;;
20090;SDS011;10205;49.678;6.560;2022-07-15T07:44:20;6.18;;;4.63;;
20090;SDS011;10205;49.678;6.560;2022-07-15T07:46:47;8.10;;;4.70;;
20090;SDS011;10205;49.678;6.560;2022-07-15T07:49:14;5.03;;;3.95;;
20090;SDS011;10205;49.678;6.560;2022-07-15T07:51:42;6.55;;;4.00;;
20090;SDS011;10205;49.678;6.560;2022-07-15T07:54:09;6.03;;;4.28;;
20090;SDS011;10205;49.678;6.560;2022-07-15T07:56:37;8.73;;;5.40;;
20090;SDS011;10205;49.678;6.560;2022-07-15T07:59:05;5.68;;;4.97;;
20090;SDS011;10205;49.678;6.560;2022-07-15T08:01:34;4.90;;;4.40;;
20090;SDS011;10205;49.678;6.560;2022-07-15T08:04:01;4.68;;;3.90;;
20090;SDS011;10205;49.678;6.560;2022-07-15T08:06:29;8.52;;;4.65;;
20090;SDS011;10205;49.678;6.560;2022-07-15T08:08:56;4.93;;;4.38;;
20090;SDS011;10205;49.678;6.560;2022-07-15T08:11:23;4.97;;;3.92;;
20090;SDS011;10205;49.678;6.560;2022-07-15T08:13:51;5.88;;;5.05;;
20090;SDS011;10205;49.678;6.560;2022-07-15T08:16:18;7.50;;;5.30;;
20090;SDS011;10205;49.678;6.560;2022-07-15T08:18:47;5.68;;;4.40;;
20090;SDS011;10205;49.678;6.560;2022-07-15T08:21:15;5.95;;;4.32;;
20090;SDS011;10205;49.678;6.560;2022-07-15T08:23:42;5.10;;;4.60;;
20090;SDS011;10205;49.678;6.560;2022-07-15T08:26:09;6.35;;;5.15;;
20090;SDS011;10205;49.678;6.560;2022-07-15T08:28:40;5.00;;;4.60;;
20090;SDS011;10205;49.678;6.560;2022-07-15T08:31:09;5.03;;;4.40;;
20090;SDS011;10205;49.678;6.560;2022-07-15T08:33:36;5.82;;;4.85;;
20090;SDS011;10205;49.678;6.560;2022-07-15T08:36:05;4.82;;;4.35;;
20090;SDS011;10205;49.678;6.560;2022-07-15T08:38:32;7.82;;;4.43;;
20090;SDS011;10205;49.678;6.560;2022-07-15T08:40:59;7.35;;;4.85;;
20090;SDS011;10205;49.678;6.560;2022-07-15T08:43:26;7.00;;;4.88;;
20090;SDS011;10205;49.678;6.560;2022-07-15T08:45:54;4.53;;;4.13;;
20090;SDS011;10205;49.678;6.560;2022-07-15T08:48:22;4.93;;;4.43;;
20090;SDS011;10205;49.678;6.560;2022-07-15T08:50:54;5.90;;;4.38;;
20090;SDS011;10205;49.678;6.560;2022-07-15T08:53:23;7.70;;;4.20;;
20090;SDS011;10205;49.678;6.560;2022-07-15T08:55:50;5.80;;;4.70;;
20090;SDS011;10205;49.678;6.560;2022-07-15T08:58:18;6.35;;;4.03;;
20090;SDS011;10205;49.678;6.560;2022-07-15T09:00:46;4.90;;;4.43;;
20090;SDS011;10205;49.678;6.560;2022-07-15T09:03:13;5.38;;;4.68;;
20090;SDS011;10205;49.678;6.560;2022-07-15T09:05:41;5.10;;;4.68;;
20090;SDS011;10205;49.678;6.560;2022-07-15T09:08:09;5.65;;;5.03;;
20090;SDS011;10205;49.678;6.560;2022-07-15T09:10:47;8.55;;;4.78;;
20090;SDS011;10205;49.678;6.560;2022-07-15T09:13:24;4.40;;;3.78;;
20090;SDS011;10205;49.678;6.560;2022-07-15T09:15:58;4.60;;;3.60;;
20090;SDS011;10205;49.678;6.560;2022-07-15T09:18:28;9.77;;;3.60;;
20090;SDS011;10205;49.678;6.560;2022-07-15T09:20:58;4.07;;;3.58;;
20090;SDS011;10205;49.678;6.560;2022-07-15T09:23:27;5.65;;;4.15;;
20090;SDS011;10205;49.678;6.560;2022-07-15T09:25:59;6.75;;;4.32;;
20090;SDS011;10205;49.678;6.560;2022-07-15T09:28:48;4.38;;;3.97;;
20090;SDS011;10205;49.678;6.560;2022-07-15T09:31:26;5.88;;;4.45;;
20090;SDS011;10205;49.678;6.560;2022-07-15T09:34:15;3.90;;;3.50;;
20090;SDS011;10205;49.678;6.560;2022-07-15T09:36:44;4.53;;;3.58;;
20090;SDS011;10205;49.678;6.560;2022-07-15T09:39:16;3.67;;;3.38;;
20090;SDS011;10205;49.678;6.560;2022-07-15T09:41:46;4.38;;;3.55;;
20090;SDS011;10205;49.678;6.560;2022-07-15T09:44:15;4.50;;;3.55;;
20090;SDS011;10205;49.678;6.560;2022-07-15T09:46:45;7.07;;;4.07;;
20090;SDS011;10205;49.678;6.560;2022-07-15T09:49:15;6.55;;;3.35;;
20090;SDS011;10205;49.678;6.560;2022-07-15T09:52:00;4.72;;;3.50;;
20090;SDS011;10205;49.678;6.560;2022-07-15T09:54:32;4.55;;;2.97;;
20090;SDS011;10205;49.678;6.560;2022-07-15T09:57:04;3.40;;;2.97;;
20090;SDS011;10205;49.678;6.560;2022-07-15T09:59:34;3.70;;;3.08;;
20090;SDS011;10205;49.678;6.560;2022-07-15T10:02:01;3.45;;;3.15;;
20090;SDS011;10205;49.678;6.560;2022-07-15T10:04:30;3.85;;;3.00;;
20090;SDS011;10205;49.678;6.560;2022-07-15T10:06:58;2.85;;;2.20;;
20090;SDS011;10205;49.678;6.560;2022-07-15T10:09:26;2.63;;;2.05;;
20090;SDS011;10205;49.678;6.560;2022-07-15T10:11:56;2.58;;;2.28;;
20090;SDS011;10205;49.678;6.560;2022-07-15T10:14:46;3.75;;;2.30;;
20090;SDS011;10205;49.678;6.560;2022-07-15T10:17:36;3.17;;;2.17;;
20090;SDS011;10205;49.678;6.560;2022-07-15T10:20:45;3.33;;;1.73;;
20090;SDS011;10205;49.678;6.560;2022-07-15T10:23:48;2.28;;;2.08;;
20090;SDS011;10205;49.678;6.560;2022-07-15T10:26:48;3.92;;;2.03;;
20090;SDS011;10205;49.678;6.560;2022-07-15T10:29:30;3.95;;;2.10;;
20090;SDS011;10205;49.678;6.560;2022-07-15T10:32:00;2.70;;;2.08;;
20090;SDS011;10205;49.678;6.560;2022-07-15T10:34:28;2.65;;;1.77;;
20090;SDS011;10205;49.678;6.560;2022-07-15T10:37:08;4.47;;;2.45;;
20090;SDS011;10205;49.678;6.560;2022-07-15T10:39:50;2.95;;;2.28;;
20090;SDS011;10205;49.678;6.560;2022-07-15T10:42:30;2.35;;;1.83;;
20090;SDS011;10205;49.678;6.560;2022-07-15T10:45:26;2.38;;;1.80;;
20090;SDS011;10205;49.678;6.560;2022-07-15T10:50:53;4.10;;;2.28;;
20090;SDS011;10205;49.678;6.560;2022-07-15T10:53:22;3.17;;;1.83;;
20090;SDS011;10205;49.678;6.560;2022-07-15T10:55:52;3.70;;;2.00;;
20090;SDS011;10205;49.678;6.560;2022-07-15T10:58:21;2.22;;;1.52;;
20090;SDS011;10205;49.678;6.560;2022-07-15T11:00:48;2.58;;;1.98;;
20090;SDS011;10205;49.678;6.560;2022-07-15T11:03:18;4.28;;;1.95;;
20090;SDS011;10205;49.678;6.560;2022-07-15T11:06:05;2.58;;;2.15;;
20090;SDS011;10205;49.678;6.560;2022-07-15T11:08:48;2.70;;;1.83;;
20090;SDS011;10205;49.678;6.560;2022-07-15T11:17:14;3.15;;;2.45;;
20090;SDS011;10205;49.678;6.560;2022-07-15T11:19:49;3.42;;;2.10;;
20090;SDS011;10205;49.678;6.560;2022-07-15T11:22:18;3.22;;;2.00;;
20090;SDS011;10205;49.678;6.560;2022-07-15T11:24:47;3.05;;;1.90;;
20090;SDS011;10205;49.678;6.560;2022-07-15T11:27:15;4.28;;;2.22;;
20090;SDS011;10205;49.678;6.560;2022-07-15T11:29:43;1.83;;;1.73;;
20090;SDS011;10205;49.678;6.560;2022-07-15T11:32:15;8.07;;;2.65;;
20090;SDS011;10205;49.678;6.560;2022-07-15T11:34:46;4.05;;;2.20;;
20090;SDS011;10205;49.678;6.560;2022-07-15T11:37:16;3.92;;;1.45;;
20090;SDS011;10205;49.678;6.560;2022-07-15T11:39:46;2.33;;;1.98;;
20090;SDS011;10205;49.678;6.560;2022-07-15T11:42:35;3.90;;;2.08;;
20090;SDS011;10205;49.678;6.560;2022-07-15T11:45:32;3.30;;;1.98;;
20090;SDS011;10205;49.678;6.560;2022-07-15T11:48:03;3.28;;;1.73;;
20090;SDS011;10205;49.678;6.560;2022-07-15T11:50:32;2.72;;;1.98;;
20090;SDS011;10205;49.678;6.560;2022-07-15T11:53:00;5.53;;;1.80;;
20090;SDS011;10205;49.678;6.560;2022-07-15T11:55:46;2.25;;;1.75;;
20090;SDS011;10205;49.678;6.560;2022-07-15T11:58:29;3.25;;;1.70;;
20090;SDS011;10205;49.678;6.560;2022-07-15T12:01:00;3.38;;;1.73;;
20090;SDS011;10205;49.678;6.560;2022-07-15T12:03:33;6.75;;;1.83;;
20090;SDS011;10205;49.678;6.560;2022-07-15T12:06:10;2.90;;;1.67;;
20090;SDS011;10205;49.678;6.560;2022-07-15T12:08:43;2.55;;;1.40;;
20090;SDS011;10205;49.678;6.560;2022-07-15T12:11:14;2.75;;;1.60;;
20090;SDS011;10205;49.678;6.560;2022-07-15T12:13:46;1.63;;;1.20;;
20090;SDS011;10205;49.678;6.560;2022-07-15T12:16:22;2.35;;;1.65;;
20090;SDS011;10205;49.678;6.560;2022-07-15T12:18:53;2.10;;;1.30;;
20090;SDS011;10205;49.678;6.560;2022-07-15T12:21:22;2.90;;;1.38;;
20090;SDS011;10205;49.678;6.560;2022-07-15T12:24:01;2.75;;;1.77;;
20090;SDS011;10205;49.678;6.560;2022-07-15T12:26:33;3.58;;;2.13;;
20090;SDS011;10205;49.678;6.560;2022-07-15T12:29:04;3.03;;;1.85;;
20090;SDS011;10205;49.678;6.560;2022-07-15T12:31:37;4.32;;;2.10;;
20090;SDS011;10205;49.678;6.560;2022-07-15T12:34:06;2.33;;;1.73;;
20090;SDS011;10205;49.678;6.560;2022-07-15T12:36:34;2.00;;;1.80;;
20090;SDS011;10205;49.678;6.560;2022-07-15T12:39:05;1.92;;;1.75;;
20090;SDS011;10205;49.678;6.560;2022-07-15T12:41:39;1.83;;;1.70;;
20090;SDS011;10205;49.678;6.560;2022-07-15T12:44:09;1.83;;;1.63;;
20090;SDS011;10205;49.678;6.560;2022-07-15T12:46:52;2.40;;;1.70;;
20090;SDS011;10205;49.678;6.560;2022-07-15T12:49:39;2.92;;;1.75;;
20090;SDS011;10205;49.678;6.560;2022-07-15T12:52:18;2.63;;;1.77;;
20090;SDS011;10205;49.678;6.560;2022-07-15T12:54:55;2.53;;;1.50;;
20090;SDS011;10205;49.678;6.560;2022-07-15T12:57:30;1.98;;;1.45;;
20090;SDS011;10205;49.678;6.560;2022-07-15T13:00:03;2.67;;;1.45;;
20090;SDS011;10205;49.678;6.560;2022-07-15T13:05:24;1.63;;;1.33;;
20090;SDS011;10205;49.678;6.560;2022-07-15T13:07:54;1.52;;;1.42;;
20090;SDS011;10205;49.678;6.560;2022-07-15T13:10:21;2.88;;;1.45;;
20090;SDS011;10205;49.678;6.560;2022-07-15T13:12:49;2.75;;;1.73;;
20090;SDS011;10205;49.678;6.560;2022-07-15T13:15:16;4.95;;;1.65;;
20090;SDS011;10205;49.678;6.560;2022-07-15T13:17:43;5.10;;;2.10;;
20090;SDS011;10205;49.678;6.560;2022-07-15T13:20:12;2.65;;;1.65;;
20090;SDS011;10205;49.678;6.560;2022-07-15T13:22:39;2.00;;;1.60;;
20090;SDS011;10205;49.678;6.560;2022-07-15T13:25:07;2.05;;;1.50;;
20090;SDS011;10205;49.678;6.560;2022-07-15T13:27:35;3.05;;;1.75;;
20090;SDS011;10205;49.678;6.560;2022-07-15T13:30:03;2.40;;;1.65;;
20090;SDS011;10205;49.678;6.560;2022-07-15T13:32:31;2.78;;;1.42;;
20090;SDS011;10205;49.678;6.560;2022-07-15T13:34:59;4.38;;;1.50;;
20090;SDS011;10205;49.678;6.560;2022-07-15T13:37:34;6.25;;;1.60;;
20090;SDS011;10205;49.678;6.560;2022-07-15T13:40:04;2.25;;;1.60;;
20090;SDS011;10205;49.678;6.560;2022-07-15T13:42:34;4.82;;;1.50;;
20090;SDS011;10205;49.678;6.560;2022-07-15T13:45:03;1.95;;;1.48;;
20090;SDS011;10205;49.678;6.560;2022-07-15T13:47:31;1.83;;;1.50;;
20090;SDS011;10205;49.678;6.560;2022-07-15T13:49:58;2.80;;;1.38;;
20090;SDS011;10205;49.678;6.560;2022-07-15T13:52:45;1.83;;;1.42;;
20090;SDS011;10205;49.678;6.560;2022-07-15T13:55:15;5.53;;;1.45;;
20090;SDS011;10205;49.678;6.560;2022-07-15T13:57:44;1.27;;;1.17;;
20090;SDS011;10205;49.678;6.560;2022-07-15T14:00:14;2.10;;;1.48;;
20090;SDS011;10205;49.678;6.560;2022-07-15T14:02:45;2.10;;;1.52;;
20090;SDS011;10205;49.678;6.560;2022-07-15T14:05:13;2.00;;;1.38;;
20090;SDS011;10205;49.678;6.560;2022-07-15T14:07:41;1.92;;;1.33;;
20090;SDS011;10205;49.678;6.560;2022-07-15T14:10:09;1.90;;;1.45;;
20090;SDS011;10205;49.678;6.560;2022-07-15T14:12:37;1.70;;;1.13;;
20090;SDS011;10205;49.678;6.560;2022-07-15T14:15:04;2.75;;;1.40;;
20090;SDS011;10205;49.678;6.560;2022-07-15T14:17:32;3.15;;;1.55;;
20090;SDS011;10205;49.678;6.560;2022-07-15T14:20:00;4.82;;;1.40;;
20090;SDS011;10205;49.678;6.560;2022-07-15T14:22:27;2.22;;;1.48;;
20090;SDS011;10205;49.678;6.560;2022-07-15T14:24:55;1.45;;;1.20;;
20090;SDS011;10205;49.678;6.560;2022-07-15T14:27:24;1.60;;;1.17;;
20090;SDS011;10205;49.678;6.560;2022-07-15T14:29:51;1.88;;;1.02;;
20090;SDS011;10205;49.678;6.560;2022-07-15T14:32:19;2.85;;;0.98;;
20090;SDS011;10205;49.678;6.560;2022-07-15T14:34:46;1.95;;;1.13;;
20090;SDS011;10205;49.678;6.560;2022-07-15T14:37:13;3.13;;;1.23;;
20090;SDS011;10205;49.678;6.560;2022-07-15T14:39:40;2.58;;;1.00;;
20090;SDS011;10205;49.678;6.560;2022-07-15T14:42:07;1.40;;;1.17;;
20090;SDS011;10205;49.678;6.560;2022-07-15T14:44:36;1.08;;;0.88;;
20090;SDS011;10205;49.678;6.560;2022-07-15T14:47:03;2.88;;;1.38;;
20090;SDS011;10205;49.678;6.560;2022-07-15T14:49:30;2.17;;;1.20;;
20090;SDS011;10205;49.678;6.560;2022-07-15T14:51:57;1.52;;;1.13;;
20090;SDS011;10205;49.678;6.560;2022-07-15T14:54:25;1.60;;;1.27;;
20090;SDS011;10205;49.678;6.560;2022-07-15T14:56:52;1.40;;;0.95;;
20090;SDS011;10205;49.678;6.560;2022-07-15T14:59:19;1.20;;;1.10;;
20090;SDS011;10205;49.678;6.560;2022-07-15T15:01:48;4.07;;;1.25;;
20090;SDS011;10205;49.678;6.560;2022-07-15T15:04:15;2.00;;;1.23;;
20090;SDS011;10205;49.678;6.560;2022-07-15T15:06:42;1.30;;;1.10;;
20090;SDS011;10205;49.678;6.560;2022-07-15T15:09:09;2.00;;;1.10;;
20090;SDS011;10205;49.678;6.560;2022-07-15T15:11:37;1.77;;;1.00;;
20090;SDS011;10205;49.678;6.560;2022-07-15T15:14:04;1.45;;;1.10;;
20090;SDS011;10205;49.678;6.560;2022-07-15T15:16:32;1.52;;;0.95;;
20090;SDS011;10205;49.678;6.560;2022-07-15T15:19:00;1.42;;;1.00;;
20090;SDS011;10205;49.678;6.560;2022-07-15T15:21:27;1.10;;;1.00;;
20090;SDS011;10205;49.678;6.560;2022-07-15T15:23:55;1.15;;;1.05;;
20090;SDS011;10205;49.678;6.560;2022-07-15T15:26:22;1.00;;;0.90;;
20090;SDS011;10205;49.678;6.560;2022-07-15T15:28:50;2.55;;;1.20;;
20090;SDS011;10205;49.678;6.560;2022-07-15T15:31:19;1.73;;;1.15;;
20090;SDS011;10205;49.678;6.560;2022-07-15T15:33:47;0.98;;;0.88;;
20090;SDS011;10205;49.678;6.560;2022-07-15T15:36:16;2.13;;;1.40;;
20090;SDS011;10205;49.678;6.560;2022-07-15T15:38:44;1.10;;;1.00;;
20090;SDS011;10205;49.678;6.560;2022-07-15T15:41:12;1.90;;;1.20;;
20090;SDS011;10205;49.678;6.560;2022-07-15T15:43:39;1.45;;;1.00;;
20090;SDS011;10205;49.678;6.560;2022-07-15T15:46:07;3.17;;;1.27;;
20090;SDS011;10205;49.678;6.560;2022-07-15T15:48:34;1.35;;;1.20;;
20090;SDS011;10205;49.678;6.560;2022-07-15T15:51:02;1.30;;;1.00;;
20090;SDS011;10205;49.678;6.560;2022-07-15T15:53:30;1.23;;;1.00;;
20090;SDS011;10205;49.678;6.560;2022-07-15T15:55:57;1.05;;;0.98;;
20090;SDS011;10205;49.678;6.560;2022-07-15T15:58:25;1.52;;;1.23;;
20090;SDS011;10205;49.678;6.560;2022-07-15T16:00:54;1.42;;;1.20;;
20090;SDS011;10205;49.678;6.560;2022-07-15T16:03:24;2.00;;;1.13;;
20090;SDS011;10205;49.678;6.560;2022-07-15T16:05:52;1.30;;;1.20;;
20090;SDS011;10205;49.678;6.560;2022-07-15T16:08:19;2.13;;;1.25;;
20090;SDS011;10205;49.678;6.560;2022-07-15T16:10:47;1.48;;;1.05;;
20090;SDS011;10205;49.678;6.560;2022-07-15T16:13:15;1.98;;;1.33;;
20090;SDS011;10205;49.678;6.560;2022-07-15T16:15:42;1.30;;;1.00;;
20090;SDS011;10205;49.678;6.560;2022-07-15T16:18:09;1.20;;;1.10;;
20090;SDS011;10205;49.678;6.560;2022-07-15T16:20:37;1.27;;;1.13;;
20090;SDS011;10205;49.678;6.560;2022-07-15T16:23:04;2.72;;;1.20;;
20090;SDS011;10205;49.678;6.560;2022-07-15T16:25:31;1.52;;;1.38;;
20090;SDS011;10205;49.678;6.560;2022-07-15T16:28:03;1.20;;;1.10;;
20090;SDS011;10205;49.678;6.560;2022-07-15T16:30:35;1.75;;;1.20;;
20090;SDS011;10205;49.678;6.560;2022-07-15T16:33:02;1.20;;;1.05;;
20090;SDS011;10205;49.678;6.560;2022-07-15T16:35:30;1.70;;;1.20;;
20090;SDS011;10205;49.678;6.560;2022-07-15T16:37:58;2.30;;;1.40;;
20090;SDS011;10205;49.678;6.560;2022-07-15T16:40:26;1.67;;;1.40;;
20090;SDS011;10205;49.678;6.560;2022-07-15T16:42:55;1.45;;;1.10;;
20090;SDS011;10205;49.678;6.560;2022-07-15T16:45:23;1.58;;;1.30;;
20090;SDS011;10205;49.678;6.560;2022-07-15T16:47:51;3.08;;;1.20;;
20090;SDS011;10205;49.678;6.560;2022-07-15T16:50:18;2.22;;;1.45;;
20090;SDS011;10205;49.678;6.560;2022-07-15T16:52:46;2.25;;;1.30;;